Time;durP1;ratioP1;P1;durP2;ratioP2;P2;SDS_P1;SDS_P2;PMS_P1;PMS_P2;Temp;Humidity;BMP_temperature;BMP_pressure;BME280_temperature;BME280_humidity;BME280_pressure;Samples;Min_cycle;Max_cycle;Signal;HPM_P1;HPM_P2
2022/10/26 00:00:49;;;;;;;22.87;14.58;;;;;;;13.91;99.22;100814.65;1791922;78;26069;-79
2022/10/26 00:03:18;;;;;;;20.95;14.93;;;;;;;13.94;99.35;100812.07;1789853;78;25784;-79
2022/10/26 00:05:44;;;;;;;22.42;14.70;;;;;;;13.95;99.37;100824.48;1792109;78;25846;-79
2022/10/26 00:08:12;;;;;;;19.45;13.72;;;;;;;13.96;99.41;100820.78;1789348;78;27454;-79
2022/10/26 00:10:38;;;;;;;18.40;15.32;;;;;;;13.94;99.29;100825.54;1789527;78;25806;-79
2022/10/26 00:13:08;;;;;;;21.70;13.83;;;;;;;13.92;99.49;100823.02;1797456;78;25752;-79
2022/10/26 00:15:41;;;;;;;20.90;15.75;;;;;;;13.93;99.58;100824.70;1799827;78;26029;-79
2022/10/26 00:18:09;;;;;;;21.23;15.55;;;;;;;13.96;99.63;100822.12;1800663;78;26471;-79
2022/10/26 00:20:35;;;;;;;19.82;14.60;;;;;;;13.98;99.64;100817.88;1808077;78;27440;-79
2022/10/26 00:23:02;;;;;;;26.17;15.85;;;;;;;13.97;99.51;100814.34;1803586;78;25913;-78
2022/10/26 00:25:28;;;;;;;17.20;13.38;;;;;;;13.97;99.48;100816.20;1804897;78;25953;-79
2022/10/26 00:27:55;;;;;;;19.55;15.10;;;;;;;13.96;99.44;100813.20;1801090;78;26246;-79
2022/10/26 00:30:21;;;;;;;24.90;15.55;;;;;;;13.98;99.47;100816.52;1810593;78;25943;-79
2022/10/26 00:32:47;;;;;;;18.70;14.60;;;;;;;13.96;99.17;100819.94;1805174;78;27437;-79
2022/10/26 00:35:14;;;;;;;20.88;15.98;;;;;;;13.92;99.22;100820.33;1796350;78;25854;-79
2022/10/26 00:37:40;;;;;;;21.97;15.85;;;;;;;13.93;99.21;100826.05;1794712;78;25755;-79
2022/10/26 00:40:07;;;;;;;23.27;15.32;;;;;;;13.93;99.20;100817.13;1792326;78;25882;-79
2022/10/26 00:42:33;;;;;;;21.17;14.98;;;;;;;13.92;99.04;100821.68;1793522;78;25739;-79
2022/10/26 00:45:23;;;;;;;17.87;14.50;;;;;;;13.92;99.03;100823.56;1791703;78;28257;-79
2022/10/26 00:48:10;;;;;;;25.10;15.13;;;;;;;13.90;99.00;100829.13;1794620;78;26092;-79
2022/10/26 00:50:41;;;;;;;22.15;14.83;;;;;;;13.87;98.89;100836.28;1793604;78;25718;-79
2022/10/26 00:53:09;;;;;;;18.42;13.40;;;;;;;13.83;98.95;100837.73;1795511;78;25349;-79
2022/10/26 00:55:40;;;;;;;20.60;14.03;;;;;;;13.82;98.90;100840.59;1794077;78;25806;-80
2022/10/26 00:58:09;;;;;;;20.08;13.80;;;;;;;13.77;98.91;100839.85;1794844;78;27509;-79
2022/10/26 01:00:36;;;;;;;18.62;13.68;;;;;;;13.77;98.99;100843.09;1793435;78;26362;-80
2022/10/26 01:03:07;;;;;;;18.55;12.93;;;;;;;13.76;98.92;100840.06;1793634;78;25912;-80
2022/10/26 01:05:38;;;;;;;20.77;13.53;;;;;;;13.77;98.89;100840.39;1791841;78;26251;-80
2022/10/26 01:08:06;;;;;;;20.55;14.00;;;;;;;13.76;98.80;100835.52;1795290;78;26224;-80
2022/10/26 01:10:35;;;;;;;19.75;13.72;;;;;;;13.73;98.66;100835.06;1796894;78;27410;-80
2022/10/26 01:13:02;;;;;;;21.75;13.55;;;;;;;13.71;98.79;100833.94;1798811;78;25826;-80
2022/10/26 01:15:49;;;;;;;14.70;12.28;;;;;;;13.69;98.62;100837.34;1789726;78;25702;-80
2022/10/26 01:18:36;;;;;;;17.92;12.43;;;;;;;13.67;98.54;100837.23;1790653;77;26021;-80
2022/10/26 01:21:45;;;;;;;16.60;13.43;;;;;;;13.61;98.45;100844.25;1800899;78;25933;-79
2022/10/26 01:24:37;;;;;;;18.52;13.05;;;;;;;13.58;98.49;100839.80;1801329;78;27450;-80
2022/10/26 01:27:28;;;;;;;18.65;12.13;;;;;;;13.53;98.52;100843.59;1801821;78;25754;-79
2022/10/26 01:30:18;;;;;;;19.80;13.48;;;;;;;13.48;98.32;100846.05;1799094;78;25718;-80
2022/10/26 01:33:09;;;;;;;19.45;14.23;;;;;;;13.42;98.66;100840.95;1801501;78;25734;-79
2022/10/26 01:36:05;;;;;;;20.85;14.58;;;;;;;13.38;98.66;100842.89;1803221;78;25973;-80
2022/10/26 01:38:57;;;;;;;25.50;15.88;;;;;;;13.39;98.85;100844.54;1797497;78;27673;-79
2022/10/26 01:41:53;;;;;;;22.75;15.50;;;;;;;13.36;98.87;100836.38;1812185;78;25884;-80
2022/10/26 01:44:24;;;;;;;19.00;13.15;;;;;;;13.38;99.10;100841.04;1803866;78;25755;-80
2022/10/26 01:46:53;;;;;;;;;;;;;;;13.37;98.96;100847.44;1815491;78;25816;-79
2022/10/26 01:49:24;;;;;;;20.65;13.80;;;;;;;13.31;98.84;100844.70;1814800;78;25671;-80
2022/10/26 01:51:50;;;;;;;19.82;14.43;;;;;;;13.26;99.13;100848.52;1814752;78;27561;-80
2022/10/26 01:54:17;;;;;;;19.75;14.05;;;;;;;13.27;99.15;100855.55;1815419;78;26594;-80
2022/10/26 01:56:47;;;;;;;27.37;15.65;;;;;;;13.23;99.16;100854.29;1819037;78;25836;-80
2022/10/26 01:59:54;;;;;;;21.75;14.28;;;;;;;13.22;99.30;100856.14;1811300;78;25623;-80
2022/10/26 02:02:53;;;;;;;23.45;16.15;;;;;;;13.23;99.45;100855.63;1818142;78;25904;-80
2022/10/26 02:05:34;;;;;;;23.42;16.25;;;;;;;13.26;99.60;100856.59;1815288;78;27437;-79
2022/10/26 02:08:16;;;;;;;21.82;15.65;;;;;;;13.27;99.42;100851.01;1814605;78;25767;-79
2022/10/26 02:10:48;;;;;;;28.73;15.15;;;;;;;13.27;99.36;100856.89;1820101;78;25830;-80
2022/10/26 02:13:41;;;;;;;24.75;16.07;;;;;;;13.26;99.23;100857.41;1822399;78;26326;-79
2022/10/26 02:16:31;;;;;;;21.60;15.63;;;;;;;13.25;99.31;100860.30;1817981;78;25836;-79
2022/10/26 02:19:11;;;;;;;23.02;15.90;;;;;;;13.26;99.26;100855.25;1821497;78;27485;-79
2022/10/26 02:21:43;;;;;;;30.88;18.02;;;;;;;13.23;99.21;100852.44;1819782;78;26462;-79
2022/10/26 02:24:12;;;;;;;24.20;16.17;;;;;;;13.23;99.29;100855.63;1815601;78;25720;-80
2022/10/26 02:26:43;;;;;;;24.63;15.72;;;;;;;13.25;99.42;100862.48;1817981;78;26217;-79
2022/10/26 02:29:14;;;;;;;25.92;16.50;;;;;;;13.26;99.35;100863.32;1813398;78;25822;-79
2022/10/26 02:31:43;;;;;;;25.55;16.02;;;;;;;13.26;99.31;100867.36;1813659;78;27451;-79
2022/10/26 02:34:12;;;;;;;24.85;16.57;;;;;;;13.24;99.23;100866.73;1818247;78;26404;-80
2022/10/26 02:36:43;;;;;;;22.82;15.98;;;;;;;13.23;99.26;100865.89;1817334;78;25764;-79
2022/10/26 02:39:12;;;;;;;19.50;16.57;;;;;;;13.23;99.15;100871.27;1824112;78;35339;-80
2022/10/26 02:41:40;;;;;;;22.30;17.65;;;;;;;13.23;99.29;100869.92;1819147;78;26340;-79
2022/10/26 02:44:21;;;;;;;26.97;17.77;;;;;;;13.26;99.43;100874.89;1809355;78;27450;-80
2022/10/26 02:46:49;;;;;;;22.75;16.50;;;;;;;13.28;99.35;100868.80;1810681;78;26141;-79
2022/10/26 02:49:16;;;;;;;22.55;17.05;;;;;;;13.28;99.24;100871.48;1813862;78;25615;-80
2022/10/26 02:51:50;;;;;;;27.93;16.97;;;;;;;13.28;99.20;100874.17;1819080;78;25474;-80
2022/10/26 02:54:33;;;;;;;27.05;17.42;;;;;;;13.29;99.05;100880.39;1784947;78;25952;-80
2022/10/26 02:57:16;;;;;;;29.15;17.48;;;;;;;13.26;99.05;100880.27;1812096;78;27468;-81
2022/10/26 02:59:48;;;;;;;26.80;17.42;;;;;;;13.26;99.13;100887.53;1817751;78;25707;-80
2022/10/26 03:02:18;;;;;;;25.27;17.73;;;;;;;13.25;99.15;100889.89;1822966;78;25879;-80
2022/10/26 03:04:45;;;;;;;31.07;18.32;;;;;;;13.24;99.14;100895.78;1815313;78;26408;-80
2022/10/26 03:07:11;;;;;;;27.48;17.07;;;;;;;13.21;99.19;100896.19;1811763;78;26559;-80
2022/10/26 03:09:38;;;;;;;23.92;18.37;;;;;;;13.20;99.21;100897.71;1820520;78;27441;-80
2022/10/26 03:12:04;;;;;;;25.57;17.55;;;;;;;13.20;99.32;100897.71;1819120;78;25726;-80
2022/10/26 03:14:33;;;;;;;28.15;19.60;;;;;;;13.20;99.32;100895.02;1821686;78;26501;-80
2022/10/26 03:16:59;;;;;;;30.72;19.57;;;;;;;13.18;99.37;100893.88;1819174;78;25810;-80
2022/10/26 03:19:25;;;;;;;31.15;21.15;;;;;;;13.20;99.58;100894.52;1818496;78;25757;-80
2022/10/26 03:21:51;;;;;;;26.02;20.15;;;;;;;13.19;99.50;100891.52;1803358;78;28247;-80
2022/10/26 03:24:18;;;;;;;26.85;21.02;;;;;;;13.23;99.65;100897.33;1815087;78;26274;-80
2022/10/26 03:26:44;;;;;;;26.37;19.70;;;;;;;13.24;99.50;100901.70;1809208;78;25282;-79
2022/10/26 03:29:10;;;;;;;30.65;20.97;;;;;;;13.22;99.43;100897.84;1819787;78;25908;-79
2022/10/26 03:31:36;;;;;;;30.17;20.85;;;;;;;13.22;99.46;100904.56;1817655;78;25835;-79
2022/10/26 03:34:03;;;;;;;31.00;19.92;;;;;;;13.23;99.61;100906.75;1807186;78;28768;-80
2022/10/26 03:36:29;;;;;;;33.23;21.37;;;;;;;13.20;99.50;100907.13;1810708;78;25818;-80
2022/10/26 03:38:55;;;;;;;25.75;18.85;;;;;;;13.19;99.65;100904.97;1816472;78;25874;-80
2022/10/26 03:41:22;;;;;;;28.00;19.87;;;;;;;13.15;99.44;100909.89;1822406;78;25861;-80
2022/10/26 03:43:48;;;;;;;34.98;20.68;;;;;;;13.13;99.52;100913.80;1809145;78;26386;-80
2022/10/26 03:46:14;;;;;;;31.87;20.62;;;;;;;13.07;99.57;100907.36;1810225;78;28258;-80
2022/10/26 03:48:41;;;;;;;32.50;22.05;;;;;;;13.05;99.75;100914.79;1820416;78;25718;-80
2022/10/26 03:51:07;;;;;;;31.20;21.87;;;;;;;13.05;99.93;100919.33;1818501;78;26675;-80
2022/10/26 03:53:33;;;;;;;31.23;21.50;;;;;;;13.09;100.00;100917.91;1819008;78;25889;-80
2022/10/26 03:55:59;;;;;;;34.78;21.95;;;;;;;13.11;100.00;100923.92;1818632;78;26010;-80
2022/10/26 03:58:26;;;;;;;32.75;21.62;;;;;;;13.10;100.00;100924.46;1816593;78;28332;-80
2022/10/26 04:00:52;;;;;;;35.75;22.32;;;;;;;13.12;100.00;100922.91;1817409;78;25871;-80
2022/10/26 04:03:18;;;;;;;32.40;20.82;;;;;;;13.15;100.00;100920.65;1817716;78;25913;-80
2022/10/26 04:05:45;;;;;;;39.50;22.90;;;;;;;13.20;100.00;100924.61;1819969;78;25442;-80
2022/10/26 04:08:11;;;;;;;35.75;23.18;;;;;;;13.21;100.00;100929.81;1817702;78;25715;-81
2022/10/26 04:10:37;;;;;;;29.30;21.80;;;;;;;13.22;100.00;100932.80;1815628;78;28223;-80
2022/10/26 04:13:04;;;;;;;36.85;23.35;;;;;;;13.22;100.00;100930.62;1812756;78;25801;-81
2022/10/26 04:15:30;;;;;;;31.80;21.55;;;;;;;13.17;99.91;100928.55;1803902;78;26098;-80
2022/10/26 04:17:59;;;;;;;36.33;22.90;;;;;;;13.17;100.00;100925.02;1817519;78;25735;-80
2022/10/26 04:20:26;;;;;;;33.13;21.70;;;;;;;13.18;100.00;100928.84;1816863;78;25954;-80
2022/10/26 04:22:58;;;;;;;33.48;20.37;;;;;;;13.19;100.00;100927.84;1818217;78;28353;-80
2022/10/26 04:25:25;;;;;;;28.67;20.40;;;;;;;13.19;100.00;100921.62;1818226;78;25835;-80
2022/10/26 04:27:51;;;;;;;27.70;20.43;;;;;;;13.18;99.95;100924.81;1813726;78;25841;-81
2022/10/26 04:30:18;;;;;;;28.20;19.15;;;;;;;13.18;99.86;100931.54;1823695;78;25838;-81
2022/10/26 04:32:45;;;;;;;27.93;19.12;;;;;;;13.19;99.98;100924.30;1817046;78;25812;-80
2022/10/26 04:35:11;;;;;;;28.05;20.32;;;;;;;13.21;99.94;100935.20;1818458;78;26984;-80
2022/10/26 04:37:37;;;;;;;25.77;18.05;;;;;;;13.19;99.72;100933.22;1823478;78;25696;-80
2022/10/26 04:40:04;;;;;;;29.85;18.80;;;;;;;13.17;99.69;100935.78;1821497;78;25723;-80
2022/10/26 04:42:32;;;;;;;32.10;19.55;;;;;;;13.13;99.58;100940.70;1812246;78;26194;-80
2022/10/26 04:44:59;;;;;;;26.95;18.10;;;;;;;13.11;99.64;100939.55;1784294;78;25764;-80
2022/10/26 04:47:25;;;;;;;26.02;18.90;;;;;;;13.13;99.84;100936.66;1822156;78;27441;-80
2022/10/26 04:49:52;;;;;;;27.42;18.98;;;;;;;13.14;99.81;100936.99;1817691;78;26395;-80
2022/10/26 04:52:18;;;;;;;29.98;17.35;;;;;;;13.13;99.52;100939.34;1807551;78;25837;-80
2022/10/26 04:54:44;;;;;;;26.12;17.92;;;;;;;13.09;99.26;100942.95;1803999;78;25776;-80
2022/10/26 04:57:10;;;;;;;31.33;18.82;;;;;;;13.04;99.04;100944.03;1813243;78;25804;-80
2022/10/26 04:59:37;;;;;;;28.47;18.85;;;;;;;13.01;99.38;100949.79;1811809;78;27420;-80
2022/10/26 05:02:03;;;;;;;35.80;21.75;;;;;;;13.03;99.62;100949.08;1813319;78;26484;-80
2022/10/26 05:04:29;;;;;;;36.68;20.30;;;;;;;13.05;99.65;100950.26;1814565;78;25872;-80
2022/10/26 05:06:56;;;;;;;30.08;20.20;;;;;;;13.04;99.39;100953.45;1816693;78;25778;-80
2022/10/26 05:09:22;;;;;;;31.30;19.25;;;;;;;13.05;99.33;100955.13;1808597;78;25784;-80
2022/10/26 05:11:48;;;;;;;31.87;20.43;;;;;;;13.05;99.35;100955.64;1819935;78;28270;-80
2022/10/26 05:14:14;;;;;;;34.33;21.50;;;;;;;13.05;99.40;100955.13;1817324;78;25731;-80
2022/10/26 05:16:43;;;;;;;34.23;20.97;;;;;;;13.04;99.30;100957.98;1816945;78;25867;-80
2022/10/26 05:19:10;;;;;;;35.85;21.93;;;;;;;13.02;99.28;100962.73;1816895;78;25760;-80
2022/10/26 05:21:36;;;;;;;33.78;21.95;;;;;;;13.00;99.40;100966.94;1808306;78;25279;-80
2022/10/26 05:24:03;;;;;;;39.70;21.60;;;;;;;13.00;99.39;100966.94;1808162;78;27443;-79
2022/10/26 05:26:29;;;;;;;37.60;20.57;;;;;;;13.01;99.44;100965.09;1808502;78;25745;-80
2022/10/26 05:28:55;;;;;;;33.18;19.77;;;;;;;13.01;99.49;100967.77;1836034;77;25845;-80
2022/10/26 05:31:22;;;;;;;32.42;18.77;;;;;;;13.01;99.34;100967.27;1836238;76;25874;-80
2022/10/26 05:33:50;;;;;;;31.97;19.23;;;;;;;13.02;99.23;100970.80;1812550;78;26310;-80
2022/10/26 05:36:17;;;;;;;31.48;18.98;;;;;;;12.97;99.12;100975.41;1830333;76;27427;-80
2022/10/26 05:38:44;;;;;;;32.03;20.55;;;;;;;12.96;99.27;100979.11;1833631;76;25703;-80
2022/10/26 05:41:11;;;;;;;34.83;20.65;;;;;;;12.95;99.21;100984.69;1800902;78;25821;-80
2022/10/26 05:43:38;;;;;;;35.58;21.68;;;;;;;12.94;99.32;100986.53;1836097;77;26509;-80
2022/10/26 05:46:04;;;;;;;38.67;22.93;;;;;;;12.95;99.37;100984.19;1806503;78;25266;-80
2022/10/26 05:48:31;;;;;;;35.73;22.02;;;;;;;12.98;99.46;100986.47;1836025;75;27430;-81
2022/10/26 05:51:01;;;;;;;37.83;22.95;;;;;;;13.00;99.33;100995.17;1827146;77;25882;-80
2022/10/26 05:53:27;;;;;;;39.65;23.32;;;;;;;12.99;99.33;100994.88;1835475;77;25737;-80
2022/10/26 05:55:55;;;;;;;42.55;22.50;;;;;;;12.95;99.22;100992.25;1837375;76;26314;-80
2022/10/26 05:58:22;;;;;;;40.30;22.07;;;;;;;12.91;99.10;100995.52;1835562;76;25852;-80
2022/10/26 06:01:00;;;;;;;38.63;22.13;;;;;;;12.86;99.07;100997.93;1838259;75;27433;-80
2022/10/26 06:03:49;;;;;;;38.00;21.40;;;;;;;12.82;99.29;101000.19;1796435;77;25870;-80
2022/10/26 06:06:16;;;;;;;33.70;21.52;;;;;;;12.82;99.34;101011.44;1827777;76;25957;-80
2022/10/26 06:08:43;;;;;;;32.80;19.30;;;;;;;12.80;99.48;101012.14;1841487;76;26207;-80
2022/10/26 06:11:10;;;;;;;32.88;19.45;;;;;;;12.76;99.28;101014.39;1832194;77;25783;-79
2022/10/26 06:13:37;;;;;;;30.00;19.10;;;;;;;12.75;99.46;101014.05;1840080;76;28808;-80
2022/10/26 06:16:24;;;;;;;34.92;20.70;;;;;;;12.71;99.23;101016.81;1846499;76;25906;-80
2022/10/26 06:19:16;;;;;;;31.20;20.35;;;;;;;12.69;99.63;101011.30;1808584;78;25522;-80
2022/10/26 06:21:50;;;;;;;34.08;19.87;;;;;;;12.68;99.54;101019.86;1788360;78;25797;-80
2022/10/26 06:24:27;;;;;;;28.40;17.40;;;;;;;12.64;99.25;101023.15;1805813;78;25885;-80
2022/10/26 06:27:11;;;;;;;28.62;16.23;;;;;;;12.56;99.16;101021.89;1806263;78;27465;-80
2022/10/26 06:29:48;;;;;;;29.75;16.70;;;;;;;12.52;99.22;101024.14;1823374;77;25829;-80
2022/10/26 06:32:15;;;;;;;27.50;16.45;;;;;;;12.46;99.28;101034.30;1810041;78;25727;-81
2022/10/26 06:34:48;;;;;;;23.75;16.02;;;;;;;12.44;99.44;101040.37;1816763;78;25755;-80
2022/10/26 06:37:14;;;;;;;24.30;15.43;;;;;;;12.47;99.55;101036.48;1814811;78;25884;-80
2022/10/26 06:39:48;;;;;;;28.92;17.30;;;;;;;12.49;99.76;101035.25;1827261;78;28163;-80
2022/10/26 06:42:15;;;;;;;26.37;16.90;;;;;;;12.55;99.98;101033.68;1822186;78;25795;-80
2022/10/26 06:44:42;;;;;;;31.85;18.30;;;;;;;12.59;99.93;101043.87;1821832;78;26476;-79
2022/10/26 06:47:38;;;;;;;33.50;19.37;;;;;;;12.58;99.47;101048.06;1840309;76;26423;-80
2022/10/26 06:50:18;;;;;;;27.77;19.45;;;;;;;12.54;99.65;101054.34;1815686;77;25963;-80
2022/10/26 06:53:08;;;;;;;;;;;;;;;12.56;99.93;101054.98;1840334;77;27424;-80
2022/10/26 06:55:44;;;;;;;32.30;18.85;;;;;;;12.55;99.83;101059.21;1839016;77;25260;-80
2022/10/26 06:58:15;;;;;;;25.97;16.27;;;;;;;12.50;99.85;101056.24;1834215;77;25839;-80
2022/10/26 07:00:42;;;;;;;;;;;;;;;12.46;99.49;101053.61;1841893;77;25777;-80
2022/10/26 07:03:09;;;;;;;26.65;17.02;;;;;;;12.39;99.48;101065.62;1848989;76;25797;-79
2022/10/26 07:05:35;;;;;;;28.40;17.05;;;;;;;12.35;99.78;101058.95;1824604;77;28281;-80
2022/10/26 07:08:01;;;;;;;30.60;17.23;;;;;;;12.35;99.87;101056.27;1831378;77;25733;-80
2022/10/26 07:10:28;;;;;;;23.60;16.42;;;;;;;12.36;99.93;101058.77;1837624;77;25868;-80
2022/10/26 07:12:54;;;;;;;24.32;16.32;;;;;;;12.36;99.87;101064.13;1824617;77;26393;-79
2022/10/26 07:15:20;;;;;;;23.95;16.30;;;;;;;12.34;99.80;101056.77;1840547;77;25761;-80
2022/10/26 07:17:48;;;;;;;22.52;16.05;;;;;;;12.34;99.70;101064.83;1836176;77;27058;-80
2022/10/26 07:20:20;;;;;;;27.07;16.67;;;;;;;12.30;99.62;101073.45;1836155;77;25920;-80
2022/10/26 07:22:54;;;;;;;26.97;16.90;;;;;;;12.29;99.68;101077.17;1823211;77;25801;-80
2022/10/26 07:25:23;;;;;;;25.50;16.70;;;;;;;12.28;99.92;101079.02;1813171;78;25687;-80
2022/10/26 07:27:49;;;;;;;25.80;16.97;;;;;;;12.28;99.88;101083.05;1807395;78;25766;-80
2022/10/26 07:30:16;;;;;;;27.58;17.15;;;;;;;12.26;99.68;101081.55;1802245;78;27433;-80
2022/10/26 07:32:42;;;;;;;27.42;16.48;;;;;;;12.25;99.77;101082.06;1829442;76;26487;-80
2022/10/26 07:35:09;;;;;;;24.90;15.80;;;;;;;12.24;99.69;101083.09;1830797;77;26154;-80
2022/10/26 07:37:36;;;;;;;24.55;17.02;;;;;;;12.23;99.63;101081.41;1826695;78;25767;-80
2022/10/26 07:40:03;;;;;;;23.12;14.73;;;;;;;12.24;99.93;101083.59;1826133;77;26353;-80
2022/10/26 07:42:30;;;;;;;24.10;16.25;;;;;;;12.25;100.00;101088.77;1801164;78;28276;-80
2022/10/26 07:44:56;;;;;;;22.80;16.20;;;;;;;12.26;99.92;101086.42;1805745;78;25873;-80
2022/10/26 07:47:22;;;;;;;23.62;16.50;;;;;;;12.26;99.98;101087.77;1811955;77;26476;-80
2022/10/26 07:49:49;;;;;;;23.90;15.70;;;;;;;12.29;100.00;101083.88;1822029;78;25742;-79
2022/10/26 07:52:15;;;;;;;25.62;16.90;;;;;;;12.34;100.00;101083.64;1818159;78;25833;-80
2022/10/26 07:54:41;;;;;;;24.55;16.97;;;;;;;12.39;100.00;101089.80;1807397;78;27424;-80
2022/10/26 07:57:08;;;;;;;22.65;16.20;;;;;;;12.44;100.00;101092.77;1814237;78;26215;-84
2022/10/26 07:59:35;;;;;;;28.98;17.55;;;;;;;12.48;100.00;101094.56;1809001;77;25807;-84
2022/10/26 08:02:01;;;;;;;27.85;17.87;;;;;;;12.52;100.00;101089.12;1814164;78;26418;-83
2022/10/26 08:04:27;;;;;;;27.50;17.30;;;;;;;12.52;100.00;101090.48;1813361;78;25943;-83
2022/10/26 08:06:54;;;;;;;38.40;22.20;;;;;;;12.53;100.00;101091.63;1823397;76;27429;-82
2022/10/26 08:09:20;;;;;;;26.68;17.20;;;;;;;12.53;100.00;101094.84;1798624;78;26197;-77
2022/10/26 08:11:46;;;;;;;26.75;16.77;;;;;;;12.55;100.00;101096.83;1795766;78;25800;-78
2022/10/26 08:14:13;;;;;;;26.97;17.15;;;;;;;12.54;100.00;101095.99;1826426;77;25975;-78
2022/10/26 08:16:39;;;;;;;22.07;16.07;;;;;;;12.51;100.00;101100.38;1823666;77;25739;-77
2022/10/26 08:19:06;;;;;;;22.82;15.83;;;;;;;12.53;100.00;101101.03;1826612;77;27503;-78
2022/10/26 08:21:32;;;;;;;23.52;16.35;;;;;;;12.54;100.00;101095.99;1809188;78;26468;-77
2022/10/26 08:23:59;;;;;;;21.87;15.70;;;;;;;12.58;100.00;101094.59;1780538;78;25868;-77
2022/10/26 08:26:25;;;;;;;24.15;16.45;;;;;;;12.61;100.00;101098.77;1805427;77;25721;-78
2022/10/26 08:28:51;;;;;;;27.48;17.32;;;;;;;12.63;100.00;101096.72;1789783;79;26333;-78
2022/10/26 08:31:17;;;;;;;23.85;15.95;;;;;;;12.65;100.00;101096.86;1803133;78;27419;-77
2022/10/26 08:33:44;;;;;;;24.72;16.27;;;;;;;12.67;100.00;101097.50;1811741;78;25887;-78
2022/10/26 08:36:11;;;;;;;26.93;17.42;;;;;;;12.68;100.00;101103.72;1828539;77;25812;-87
2022/10/26 08:38:37;;;;;;;30.20;17.77;;;;;;;12.68;100.00;101101.03;1828282;77;26432;-87
2022/10/26 08:41:10;;;;;;;25.57;17.37;;;;;;;12.68;100.00;101104.53;1826928;77;25313;-90
2022/10/26 08:43:41;;;;;;;30.40;17.70;;;;;;;12.71;100.00;101104.67;1813847;77;27423;-88
2022/10/26 08:46:20;;;;;;;25.92;16.57;;;;;;;12.71;100.00;101110.05;1815131;77;26317;-87
2022/10/26 08:49:19;;;;;;;24.72;15.50;;;;;;;12.72;100.00;101107.70;1795468;78;25906;-87
2022/10/26 08:51:51;;;;;;;23.85;15.95;;;;;;;12.75;100.00;101114.02;1779420;79;25541;-87
2022/10/26 08:54:20;;;;;;;;;;;;;;;12.73;100.00;101116.91;1820329;77;25891;-88
2022/10/26 08:56:51;;;;;;;20.88;14.23;;;;;;;12.70;100.00;101125.33;1790082;78;28340;-85
2022/10/26 08:59:32;;;;;;;21.35;14.55;;;;;;;12.67;100.00;101126.23;1809291;78;26082;-86
2022/10/26 09:02:01;;;;;;;23.75;14.75;;;;;;;12.68;100.00;101134.09;1820103;77;25809;-84
2022/10/26 09:04:30;;;;;;;24.27;13.78;;;;;;;12.69;100.00;101129.06;1811542;78;25845;-83
2022/10/26 09:07:36;;;;;;;26.30;15.68;;;;;;;12.72;100.00;101133.23;1833630;75;25919;-84
2022/10/26 09:10:24;;;;;;;24.77;15.80;;;;;;;12.75;100.00;101135.52;1812902;77;27455;-82
2022/10/26 09:13:05;;;;;;;26.00;16.90;;;;;;;12.80;100.00;101129.92;1810782;78;25763;-84
2022/10/26 09:16:02;;;;;;;28.35;18.07;;;;;;;12.85;100.00;101133.41;1816196;78;25918;-84
2022/10/26 09:18:40;;;;;;;28.83;16.87;;;;;;;12.90;100.00;101138.52;1810822;78;25875;-85
2022/10/26 09:21:36;;;;;;;30.02;17.48;;;;;;;12.94;100.00;101135.77;1804298;78;25836;-84
2022/10/26 09:24:15;;;;;;;24.40;16.57;;;;;;;12.96;100.00;101135.58;1828531;78;28253;-86
2022/10/26 09:27:22;;;;;;;31.40;19.12;;;;;;;12.95;100.00;101147.38;1824691;78;26252;-85
2022/10/26 09:29:50;;;;;;;24.23;16.23;;;;;;;12.97;100.00;101152.89;1826393;78;25979;-84
2022/10/26 09:32:26;;;;;;;29.18;19.32;;;;;;;13.01;100.00;101158.20;1824383;78;26198;-84
2022/10/26 09:35:13;;;;;;;28.25;18.77;;;;;;;13.01;100.00;101163.59;1804697;78;25756;-84
2022/10/26 09:37:45;;;;;;;29.77;18.95;;;;;;;13.06;100.00;101165.24;1813220;78;27443;-84
2022/10/26 09:40:39;;;;;;;32.95;20.35;;;;;;;13.12;100.00;101161.79;1838238;76;25694;-84
2022/10/26 09:43:16;;;;;;;28.10;19.62;;;;;;;13.13;100.00;101164.78;1803929;78;25306;-82
2022/10/26 09:45:48;;;;;;;32.80;20.57;;;;;;;13.12;100.00;101171.70;1807007;78;25729;-83
2022/10/26 09:48:25;;;;;;;31.42;20.27;;;;;;;13.10;100.00;101173.25;1804069;78;25797;-83
2022/10/26 09:50:52;;;;;;;35.63;23.35;;;;;;;13.08;100.00;101173.95;1830157;78;27439;-82
2022/10/26 09:53:18;;;;;;;28.02;18.52;;;;;;;13.11;100.00;101178.09;1821554;78;25576;-83
2022/10/26 09:55:48;;;;;;;22.90;15.03;;;;;;;13.13;100.00;101180.08;1805936;78;25280;-84
2022/10/26 09:58:40;;;;;;;21.45;14.20;;;;;;;13.15;100.00;101180.75;1824372;77;25876;-83
2022/10/26 10:01:06;;;;;;;24.85;15.13;;;;;;;13.17;99.89;101182.74;1815411;78;25828;-83
2022/10/26 10:03:33;;;;;;;32.25;21.15;;;;;;;13.21;99.85;101180.50;1794945;78;27432;-83
2022/10/26 10:06:19;;;;;;;37.75;23.05;;;;;;;13.24;100.00;101171.52;1814908;78;26073;-83
2022/10/26 10:09:11;;;;;;;35.68;22.15;;;;;;;13.27;100.00;101167.62;1807877;78;25785;-80
2022/10/26 10:11:56;;;;;;;29.87;21.80;;;;;;;13.27;100.00;101176.54;1830510;78;25726;-81
2022/10/26 10:14:26;;;;;;;32.35;21.10;;;;;;;13.31;100.00;101162.19;1822203;78;26441;-82
2022/10/26 10:17:02;;;;;;;29.85;19.42;;;;;;;13.35;100.00;101162.12;1822087;78;27285;-83
2022/10/26 10:19:35;;;;;;;25.00;18.55;;;;;;;13.36;100.00;101157.08;1816892;78;26408;-84
2022/10/26 10:22:23;;;;;;;22.50;15.72;;;;;;;13.39;100.00;101158.86;1824855;77;25760;-83
2022/10/26 10:25:01;;;;;;;20.75;14.90;;;;;;;13.40;99.69;101161.88;1830594;76;25809;-84
2022/10/26 10:27:29;;;;;;;23.90;15.45;;;;;;;13.39;99.14;101162.05;1832897;77;25727;-85
2022/10/26 10:29:58;;;;;;;26.20;14.87;;;;;;;13.41;99.32;101162.73;1840589;77;27434;-86
2022/10/26 10:32:31;;;;;;;24.60;16.25;;;;;;;13.41;99.05;101161.38;1844474;77;25605;-84
2022/10/26 10:34:59;;;;;;;27.00;16.35;;;;;;;13.40;98.90;101165.92;1848797;76;26463;-85
2022/10/26 10:37:43;;;;;;;26.75;17.17;;;;;;;13.42;99.26;101156.30;1841014;76;25714;-84
2022/10/26 10:40:23;;;;;;;31.15;18.70;;;;;;;13.45;99.35;101164.81;1819557;77;25935;-84
2022/10/26 10:42:54;;;;;;;32.90;20.07;;;;;;;13.47;99.43;101171.38;1841397;76;27463;-82
2022/10/26 10:45:25;;;;;;;;;;;;;;;13.50;99.51;101172.31;1810201;78;25806;-81
2022/10/26 10:48:19;;;;;;;26.73;16.67;;;;;;;13.51;99.36;101169.45;1804471;78;25912;-81
2022/10/26 10:51:02;;;;;;;25.60;17.12;;;;;;;13.48;99.25;101165.79;1805450;78;25735;-77
2022/10/26 10:53:37;;;;;;;26.10;17.42;;;;;;;13.48;99.08;101168.98;1793097;78;26314;-77
2022/10/26 10:56:21;;;;;;;27.00;17.02;;;;;;;13.46;99.02;101173.73;1810228;78;27440;-77
2022/10/26 10:59:16;;;;;;;24.57;16.62;;;;;;;13.48;99.30;101169.83;1799899;78;26407;-77
2022/10/26 11:02:23;;;;;;;24.65;17.00;;;;;;;13.53;99.51;101169.26;1803459;78;26141;-77
2022/10/26 11:05:07;;;;;;;25.12;17.27;;;;;;;13.56;99.22;101174.23;1800729;78;25771;-76
2022/10/26 11:07:55;;;;;;;27.37;17.85;;;;;;;13.57;99.37;101177.27;1756796;78;25884;-77
2022/10/26 11:10:27;;;;;;;29.77;18.65;;;;;;;13.61;99.51;101175.34;1813258;78;27452;-77
2022/10/26 11:12:58;;;;;;;27.50;17.15;;;;;;;13.64;99.40;101176.29;1799810;78;25793;-83
2022/10/26 11:15:29;;;;;;;22.75;15.60;;;;;;;13.67;99.30;101181.30;1793823;78;25779;-83
2022/10/26 11:18:16;;;;;;;25.77;16.52;;;;;;;13.66;98.62;101175.61;1815803;78;25806;-81
2022/10/26 11:20:48;;;;;;;30.35;17.35;;;;;;;13.64;98.52;101180.86;1819800;78;25274;-84
2022/10/26 11:23:23;;;;;;;28.52;18.32;;;;;;;13.63;98.77;101177.33;1807700;78;28548;-84
2022/10/26 11:26:01;;;;;;;31.10;18.15;;;;;;;13.67;98.77;101174.57;1813702;78;25859;-84
2022/10/26 11:28:49;;;;;;;24.37;17.77;;;;;;;13.67;98.45;101171.03;1808158;78;26142;-84
2022/10/26 11:31:20;;;;;;;24.65;17.67;;;;;;;13.66;98.44;101176.95;1815518;78;25978;-83
2022/10/26 11:34:04;;;;;;;25.60;18.00;;;;;;;13.65;98.47;101179.31;1811672;78;26415;-81